sensor_id;sensor_type;location;lat;lon;timestamp;P1;durP1;ratioP1;P2;durP2;ratioP2
2750;SDS011;1383;48.362;10.908;2024-03-02T00:00:39;19.05;;;15.85;;
2750;SDS011;1383;48.362;10.908;2024-03-02T00:03:06;17.83;;;14.65;;
2750;SDS011;1383;48.362;10.908;2024-03-02T00:05:36;19.90;;;15.32;;
2750;SDS011;1383;48.362;10.908;2024-03-02T00:08:03;19.38;;;15.85;;
2750;SDS011;1383;48.362;10.908;2024-03-02T00:10:36;17.30;;;14.30;;
2750;SDS011;1383;48.362;10.908;2024-03-02T00:13:11;18.98;;;15.38;;
2750;SDS011;1383;48.362;10.908;2024-03-02T00:15:46;21.13;;;14.77;;
2750;SDS011;1383;48.362;10.908;2024-03-02T00:18:17;15.48;;;12.68;;
2750;SDS011;1383;48.362;10.908;2024-03-02T00:20:46;17.00;;;13.30;;
2750;SDS011;1383;48.362;10.908;2024-03-02T00:23:16;17.38;;;14.18;;
2750;SDS011;1383;48.362;10.908;2024-03-02T00:25:47;15.35;;;13.77;;
2750;SDS011;1383;48.362;10.908;2024-03-02T00:28:25;16.08;;;13.65;;
2750;SDS011;1383;48.362;10.908;2024-03-02T00:31:07;15.75;;;14.05;;
2750;SDS011;1383;48.362;10.908;2024-03-02T00:33:41;16.10;;;13.18;;
2750;SDS011;1383;48.362;10.908;2024-03-02T00:36:10;16.92;;;13.68;;
2750;SDS011;1383;48.362;10.908;2024-03-02T00:38:48;15.68;;;13.80;;
2750;SDS011;1383;48.362;10.908;2024-03-02T00:41:24;15.32;;;13.27;;
2750;SDS011;1383;48.362;10.908;2024-03-02T00:43:56;17.10;;;13.80;;
2750;SDS011;1383;48.362;10.908;2024-03-02T00:46:29;19.13;;;15.10;;
2750;SDS011;1383;48.362;10.908;2024-03-02T00:49:00;17.70;;;14.77;;
2750;SDS011;1383;48.362;10.908;2024-03-02T00:51:30;17.98;;;15.27;;
2750;SDS011;1383;48.362;10.908;2024-03-02T00:53:59;14.70;;;13.10;;
2750;SDS011;1383;48.362;10.908;2024-03-02T00:56:31;17.30;;;13.47;;
2750;SDS011;1383;48.362;10.908;2024-03-02T00:58:59;14.18;;;12.73;;
2750;SDS011;1383;48.362;10.908;2024-03-02T01:01:26;17.88;;;14.25;;
2750;SDS011;1383;48.362;10.908;2024-03-02T01:03:53;16.85;;;13.70;;
2750;SDS011;1383;48.362;10.908;2024-03-02T01:06:20;16.00;;;14.15;;
2750;SDS011;1383;48.362;10.908;2024-03-02T01:08:48;14.43;;;12.88;;
2750;SDS011;1383;48.362;10.908;2024-03-02T01:11:19;15.10;;;13.52;;
2750;SDS011;1383;48.362;10.908;2024-03-02T01:13:49;15.63;;;12.25;;
2750;SDS011;1383;48.362;10.908;2024-03-02T01:16:16;17.15;;;13.57;;
2750;SDS011;1383;48.362;10.908;2024-03-02T01:18:43;14.23;;;12.57;;
2750;SDS011;1383;48.362;10.908;2024-03-02T01:21:10;17.45;;;14.27;;
2750;SDS011;1383;48.362;10.908;2024-03-02T01:23:38;16.27;;;12.93;;
2750;SDS011;1383;48.362;10.908;2024-03-02T01:26:05;16.02;;;13.13;;
2750;SDS011;1383;48.362;10.908;2024-03-02T01:28:32;15.00;;;13.23;;
2750;SDS011;1383;48.362;10.908;2024-03-02T01:30:59;16.88;;;13.35;;
2750;SDS011;1383;48.362;10.908;2024-03-02T01:33:26;16.25;;;13.82;;
2750;SDS011;1383;48.362;10.908;2024-03-02T01:35:52;15.82;;;13.45;;
2750;SDS011;1383;48.362;10.908;2024-03-02T01:38:19;17.33;;;13.52;;
2750;SDS011;1383;48.362;10.908;2024-03-02T01:40:46;13.63;;;12.20;;
2750;SDS011;1383;48.362;10.908;2024-03-02T01:43:13;15.68;;;12.60;;
2750;SDS011;1383;48.362;10.908;2024-03-02T01:45:40;15.57;;;13.93;;
2750;SDS011;1383;48.362;10.908;2024-03-02T01:48:07;15.50;;;12.82;;
2750;SDS011;1383;48.362;10.908;2024-03-02T01:50:34;14.85;;;12.55;;
2750;SDS011;1383;48.362;10.908;2024-03-02T01:53:02;16.17;;;12.77;;
2750;SDS011;1383;48.362;10.908;2024-03-02T01:55:29;14.63;;;12.13;;
2750;SDS011;1383;48.362;10.908;2024-03-02T01:57:57;14.80;;;13.25;;
2750;SDS011;1383;48.362;10.908;2024-03-02T02:00:25;16.75;;;14.18;;
2750;SDS011;1383;48.362;10.908;2024-03-02T02:02:53;14.85;;;12.35;;
2750;SDS011;1383;48.362;10.908;2024-03-02T02:05:21;13.95;;;12.40;;
2750;SDS011;1383;48.362;10.908;2024-03-02T02:07:49;17.20;;;12.82;;
2750;SDS011;1383;48.362;10.908;2024-03-02T02:10:16;14.77;;;12.88;;
2750;SDS011;1383;48.362;10.908;2024-03-02T02:12:43;14.13;;;12.45;;
2750;SDS011;1383;48.362;10.908;2024-03-02T02:15:23;15.68;;;13.55;;
2750;SDS011;1383;48.362;10.908;2024-03-02T02:17:51;15.23;;;13.40;;
2750;SDS011;1383;48.362;10.908;2024-03-02T02:20:18;15.02;;;13.38;;
2750;SDS011;1383;48.362;10.908;2024-03-02T02:23:19;19.52;;;14.55;;
2750;SDS011;1383;48.362;10.908;2024-03-02T02:25:40;16.30;;;12.95;;
2750;SDS011;1383;48.362;10.908;2024-03-02T02:28:23;20.10;;;14.43;;
2750;SDS011;1383;48.362;10.908;2024-03-02T02:30:50;15.80;;;12.27;;
2750;SDS011;1383;48.362;10.908;2024-03-02T02:33:17;14.35;;;12.82;;
2750;SDS011;1383;48.362;10.908;2024-03-02T02:35:44;17.02;;;14.38;;
2750;SDS011;1383;48.362;10.908;2024-03-02T02:38:11;16.67;;;12.90;;
2750;SDS011;1383;48.362;10.908;2024-03-02T02:40:38;15.88;;;12.75;;
2750;SDS011;1383;48.362;10.908;2024-03-02T02:43:04;14.73;;;12.70;;
2750;SDS011;1383;48.362;10.908;2024-03-02T02:45:33;16.25;;;13.38;;
2750;SDS011;1383;48.362;10.908;2024-03-02T02:48:00;17.30;;;14.30;;
2750;SDS011;1383;48.362;10.908;2024-03-02T02:50:28;20.23;;;14.68;;
2750;SDS011;1383;48.362;10.908;2024-03-02T02:52:55;16.05;;;14.35;;
2750;SDS011;1383;48.362;10.908;2024-03-02T02:55:22;24.02;;;15.30;;
2750;SDS011;1383;48.362;10.908;2024-03-02T02:57:49;17.50;;;15.20;;
2750;SDS011;1383;48.362;10.908;2024-03-02T03:00:16;17.80;;;14.73;;
2750;SDS011;1383;48.362;10.908;2024-03-02T03:02:46;17.67;;;14.98;;
2750;SDS011;1383;48.362;10.908;2024-03-02T03:05:16;17.77;;;15.30;;
2750;SDS011;1383;48.362;10.908;2024-03-02T03:07:44;16.17;;;14.43;;
2750;SDS011;1383;48.362;10.908;2024-03-02T03:10:11;17.55;;;15.48;;
2750;SDS011;1383;48.362;10.908;2024-03-02T03:12:40;16.77;;;15.07;;
2750;SDS011;1383;48.362;10.908;2024-03-02T03:15:09;16.50;;;14.43;;
2750;SDS011;1383;48.362;10.908;2024-03-02T03:17:37;19.20;;;15.20;;
2750;SDS011;1383;48.362;10.908;2024-03-02T03:20:05;20.23;;;15.57;;
2750;SDS011;1383;48.362;10.908;2024-03-02T03:22:32;16.93;;;15.10;;
2750;SDS011;1383;48.362;10.908;2024-03-02T03:24:59;19.40;;;15.70;;
2750;SDS011;1383;48.362;10.908;2024-03-02T03:27:26;17.63;;;15.77;;
2750;SDS011;1383;48.362;10.908;2024-03-02T03:29:53;15.70;;;13.95;;
2750;SDS011;1383;48.362;10.908;2024-03-02T03:32:21;19.95;;;16.77;;
2750;SDS011;1383;48.362;10.908;2024-03-02T03:34:49;16.33;;;14.75;;
2750;SDS011;1383;48.362;10.908;2024-03-02T03:37:16;17.38;;;14.90;;
2750;SDS011;1383;48.362;10.908;2024-03-02T03:39:43;19.15;;;14.85;;
2750;SDS011;1383;48.362;10.908;2024-03-02T03:42:09;17.47;;;15.40;;
2750;SDS011;1383;48.362;10.908;2024-03-02T03:44:36;17.77;;;15.00;;
2750;SDS011;1383;48.362;10.908;2024-03-02T03:47:03;17.30;;;14.50;;
2750;SDS011;1383;48.362;10.908;2024-03-02T03:49:30;18.15;;;15.25;;
2750;SDS011;1383;48.362;10.908;2024-03-02T03:51:57;19.33;;;15.68;;
2750;SDS011;1383;48.362;10.908;2024-03-02T03:54:24;18.90;;;14.52;;
2750;SDS011;1383;48.362;10.908;2024-03-02T03:56:51;18.98;;;16.08;;
2750;SDS011;1383;48.362;10.908;2024-03-02T03:59:18;18.80;;;16.30;;
2750;SDS011;1383;48.362;10.908;2024-03-02T04:01:44;15.75;;;13.85;;
2750;SDS011;1383;48.362;10.908;2024-03-02T04:04:11;17.83;;;15.98;;
2750;SDS011;1383;48.362;10.908;2024-03-02T04:06:38;17.67;;;15.10;;
2750;SDS011;1383;48.362;10.908;2024-03-02T04:09:05;17.02;;;14.07;;
2750;SDS011;1383;48.362;10.908;2024-03-02T04:11:32;16.25;;;14.10;;
2750;SDS011;1383;48.362;10.908;2024-03-02T04:13:59;18.13;;;14.73;;
2750;SDS011;1383;48.362;10.908;2024-03-02T04:16:26;18.40;;;15.30;;
2750;SDS011;1383;48.362;10.908;2024-03-02T04:18:52;16.58;;;14.57;;
2750;SDS011;1383;48.362;10.908;2024-03-02T04:21:20;15.95;;;13.48;;
2750;SDS011;1383;48.362;10.908;2024-03-02T04:23:47;17.10;;;14.10;;
2750;SDS011;1383;48.362;10.908;2024-03-02T04:26:13;19.20;;;15.40;;
2750;SDS011;1383;48.362;10.908;2024-03-02T04:28:41;19.53;;;15.80;;
2750;SDS011;1383;48.362;10.908;2024-03-02T04:31:08;17.35;;;13.07;;
2750;SDS011;1383;48.362;10.908;2024-03-02T04:33:34;16.83;;;14.20;;
2750;SDS011;1383;48.362;10.908;2024-03-02T04:36:01;19.25;;;14.55;;
2750;SDS011;1383;48.362;10.908;2024-03-02T04:38:28;17.13;;;14.45;;
2750;SDS011;1383;48.362;10.908;2024-03-02T04:40:56;18.45;;;14.90;;
2750;SDS011;1383;48.362;10.908;2024-03-02T04:43:23;14.98;;;13.48;;
2750;SDS011;1383;48.362;10.908;2024-03-02T04:45:50;17.33;;;14.70;;
2750;SDS011;1383;48.362;10.908;2024-03-02T04:48:17;16.50;;;13.93;;
2750;SDS011;1383;48.362;10.908;2024-03-02T04:50:45;17.73;;;14.60;;
2750;SDS011;1383;48.362;10.908;2024-03-02T04:53:12;16.42;;;14.75;;
2750;SDS011;1383;48.362;10.908;2024-03-02T04:55:39;18.63;;;16.70;;
2750;SDS011;1383;48.362;10.908;2024-03-02T04:58:06;16.33;;;13.90;;
2750;SDS011;1383;48.362;10.908;2024-03-02T05:00:33;17.52;;;15.70;;
2750;SDS011;1383;48.362;10.908;2024-03-02T05:03:01;15.77;;;14.07;;
2750;SDS011;1383;48.362;10.908;2024-03-02T05:05:28;18.75;;;15.10;;
2750;SDS011;1383;48.362;10.908;2024-03-02T05:07:57;17.40;;;14.80;;
2750;SDS011;1383;48.362;10.908;2024-03-02T05:10:24;18.70;;;15.85;;
2750;SDS011;1383;48.362;10.908;2024-03-02T05:12:51;18.75;;;16.42;;
2750;SDS011;1383;48.362;10.908;2024-03-02T05:15:26;22.73;;;17.33;;
2750;SDS011;1383;48.362;10.908;2024-03-02T05:17:53;18.38;;;15.80;;
2750;SDS011;1383;48.362;10.908;2024-03-02T05:20:20;18.73;;;15.77;;
2750;SDS011;1383;48.362;10.908;2024-03-02T05:22:47;17.25;;;15.35;;
2750;SDS011;1383;48.362;10.908;2024-03-02T05:25:14;20.15;;;17.70;;
2750;SDS011;1383;48.362;10.908;2024-03-02T05:27:41;18.85;;;15.63;;
2750;SDS011;1383;48.362;10.908;2024-03-02T05:30:08;22.05;;;17.38;;
2750;SDS011;1383;48.362;10.908;2024-03-02T05:32:36;21.30;;;17.48;;
2750;SDS011;1383;48.362;10.908;2024-03-02T05:35:04;22.52;;;18.13;;
2750;SDS011;1383;48.362;10.908;2024-03-02T05:37:31;18.60;;;15.60;;
2750;SDS011;1383;48.362;10.908;2024-03-02T05:39:58;19.30;;;16.50;;
2750;SDS011;1383;48.362;10.908;2024-03-02T05:42:26;17.90;;;16.00;;
2750;SDS011;1383;48.362;10.908;2024-03-02T05:44:53;18.67;;;14.90;;
2750;SDS011;1383;48.362;10.908;2024-03-02T05:47:20;19.85;;;17.15;;
2750;SDS011;1383;48.362;10.908;2024-03-02T05:49:47;24.13;;;16.40;;
2750;SDS011;1383;48.362;10.908;2024-03-02T05:52:14;21.40;;;16.92;;
2750;SDS011;1383;48.362;10.908;2024-03-02T05:54:41;17.40;;;15.23;;
2750;SDS011;1383;48.362;10.908;2024-03-02T05:57:08;20.50;;;17.40;;
2750;SDS011;1383;48.362;10.908;2024-03-02T05:59:52;21.85;;;17.42;;
2750;SDS011;1383;48.362;10.908;2024-03-02T06:02:20;21.17;;;16.85;;
2750;SDS011;1383;48.362;10.908;2024-03-02T06:04:47;21.77;;;17.35;;
2750;SDS011;1383;48.362;10.908;2024-03-02T06:07:14;21.38;;;17.20;;
2750;SDS011;1383;48.362;10.908;2024-03-02T06:09:41;18.00;;;16.10;;
2750;SDS011;1383;48.362;10.908;2024-03-02T06:12:08;20.95;;;17.17;;
2750;SDS011;1383;48.362;10.908;2024-03-02T06:14:35;18.55;;;16.55;;
2750;SDS011;1383;48.362;10.908;2024-03-02T06:17:14;23.05;;;18.20;;
2750;SDS011;1383;48.362;10.908;2024-03-02T06:19:40;20.17;;;17.05;;
2750;SDS011;1383;48.362;10.908;2024-03-02T06:22:07;21.00;;;17.08;;
2750;SDS011;1383;48.362;10.908;2024-03-02T06:24:36;22.15;;;16.67;;
2750;SDS011;1383;48.362;10.908;2024-03-02T06:27:06;21.77;;;17.95;;
2750;SDS011;1383;48.362;10.908;2024-03-02T06:29:33;22.00;;;18.48;;
2750;SDS011;1383;48.362;10.908;2024-03-02T06:32:00;22.77;;;17.85;;
2750;SDS011;1383;48.362;10.908;2024-03-02T06:34:27;22.10;;;16.55;;
2750;SDS011;1383;48.362;10.908;2024-03-02T06:36:54;23.17;;;18.00;;
2750;SDS011;1383;48.362;10.908;2024-03-02T06:39:22;22.70;;;17.58;;
2750;SDS011;1383;48.362;10.908;2024-03-02T06:41:49;23.23;;;18.52;;
2750;SDS011;1383;48.362;10.908;2024-03-02T06:44:16;20.83;;;17.80;;
2750;SDS011;1383;48.362;10.908;2024-03-02T06:46:43;21.20;;;16.80;;
2750;SDS011;1383;48.362;10.908;2024-03-02T06:49:09;19.02;;;17.05;;
2750;SDS011;1383;48.362;10.908;2024-03-02T06:51:37;22.45;;;17.15;;
2750;SDS011;1383;48.362;10.908;2024-03-02T06:54:04;19.52;;;17.55;;
2750;SDS011;1383;48.362;10.908;2024-03-02T06:56:31;20.73;;;17.20;;
2750;SDS011;1383;48.362;10.908;2024-03-02T06:58:59;21.48;;;16.80;;
2750;SDS011;1383;48.362;10.908;2024-03-02T07:01:26;20.38;;;16.05;;
2750;SDS011;1383;48.362;10.908;2024-03-02T07:03:54;19.23;;;16.00;;
2750;SDS011;1383;48.362;10.908;2024-03-02T07:06:21;18.70;;;15.90;;
2750;SDS011;1383;48.362;10.908;2024-03-02T07:08:48;19.85;;;16.35;;
2750;SDS011;1383;48.362;10.908;2024-03-02T07:11:15;21.95;;;16.13;;
2750;SDS011;1383;48.362;10.908;2024-03-02T07:13:42;18.00;;;15.00;;
2750;SDS011;1383;48.362;10.908;2024-03-02T07:16:09;17.75;;;15.82;;
2750;SDS011;1383;48.362;10.908;2024-03-02T07:18:54;18.15;;;15.52;;
2750;SDS011;1383;48.362;10.908;2024-03-02T07:21:23;19.90;;;15.60;;
2750;SDS011;1383;48.362;10.908;2024-03-02T07:23:51;20.83;;;15.83;;
2750;SDS011;1383;48.362;10.908;2024-03-02T07:26:17;14.80;;;13.30;;
2750;SDS011;1383;48.362;10.908;2024-03-02T07:28:48;14.17;;;12.83;;
2750;SDS011;1383;48.362;10.908;2024-03-02T07:31:15;16.83;;;14.40;;
2750;SDS011;1383;48.362;10.908;2024-03-02T07:33:45;15.77;;;12.90;;
2750;SDS011;1383;48.362;10.908;2024-03-02T07:36:15;15.33;;;13.73;;
2750;SDS011;1383;48.362;10.908;2024-03-02T07:38:42;12.23;;;10.60;;
2750;SDS011;1383;48.362;10.908;2024-03-02T07:41:11;12.23;;;10.20;;
2750;SDS011;1383;48.362;10.908;2024-03-02T07:43:38;12.00;;;10.73;;
2750;SDS011;1383;48.362;10.908;2024-03-02T07:46:06;11.20;;;10.10;;
2750;SDS011;1383;48.362;10.908;2024-03-02T07:48:33;11.60;;;10.40;;
2750;SDS011;1383;48.362;10.908;2024-03-02T07:51:00;12.07;;;10.87;;
2750;SDS011;1383;48.362;10.908;2024-03-02T07:53:28;10.47;;;9.37;;
2750;SDS011;1383;48.362;10.908;2024-03-02T07:55:55;10.63;;;9.47;;
2750;SDS011;1383;48.362;10.908;2024-03-02T07:58:28;10.67;;;9.43;;
2750;SDS011;1383;48.362;10.908;2024-03-02T08:00:56;9.43;;;8.00;;
2750;SDS011;1383;48.362;10.908;2024-03-02T08:03:24;8.57;;;7.77;;
2750;SDS011;1383;48.362;10.908;2024-03-02T08:05:51;9.33;;;8.43;;
2750;SDS011;1383;48.362;10.908;2024-03-02T08:08:18;8.60;;;7.80;;
2750;SDS011;1383;48.362;10.908;2024-03-02T08:10:45;8.50;;;7.60;;
2750;SDS011;1383;48.362;10.908;2024-03-02T08:13:12;7.97;;;7.10;;
2750;SDS011;1383;48.362;10.908;2024-03-02T08:15:40;8.80;;;7.90;;
2750;SDS011;1383;48.362;10.908;2024-03-02T08:18:07;7.00;;;6.40;;
2750;SDS011;1383;48.362;10.908;2024-03-02T08:20:34;7.50;;;6.83;;
2750;SDS011;1383;48.362;10.908;2024-03-02T08:23:01;7.40;;;6.80;;
2750;SDS011;1383;48.362;10.908;2024-03-02T08:25:28;7.90;;;6.53;;
2750;SDS011;1383;48.362;10.908;2024-03-02T08:27:55;7.20;;;6.50;;
2750;SDS011;1383;48.362;10.908;2024-03-02T08:30:22;6.27;;;5.70;;
2750;SDS011;1383;48.362;10.908;2024-03-02T08:32:50;5.83;;;5.33;;
2750;SDS011;1383;48.362;10.908;2024-03-02T08:35:16;5.60;;;5.10;;
2750;SDS011;1383;48.362;10.908;2024-03-02T08:37:43;6.00;;;5.50;;
2750;SDS011;1383;48.362;10.908;2024-03-02T08:40:10;6.33;;;5.57;;
2750;SDS011;1383;48.362;10.908;2024-03-02T08:42:45;4.47;;;4.07;;
2750;SDS011;1383;48.362;10.908;2024-03-02T08:45:12;5.30;;;4.80;;
2750;SDS011;1383;48.362;10.908;2024-03-02T08:47:39;5.13;;;4.70;;
2750;SDS011;1383;48.362;10.908;2024-03-02T08:50:06;5.13;;;4.60;;
2750;SDS011;1383;48.362;10.908;2024-03-02T08:52:35;4.27;;;3.87;;
2750;SDS011;1383;48.362;10.908;2024-03-02T08:55:02;4.80;;;4.40;;
2750;SDS011;1383;48.362;10.908;2024-03-02T08:57:29;4.53;;;4.20;;
2750;SDS011;1383;48.362;10.908;2024-03-02T08:59:57;5.30;;;4.80;;
2750;SDS011;1383;48.362;10.908;2024-03-02T09:02:24;4.47;;;4.00;;
2750;SDS011;1383;48.362;10.908;2024-03-02T09:04:51;4.50;;;4.10;;
2750;SDS011;1383;48.362;10.908;2024-03-02T09:07:18;5.07;;;4.67;;
2750;SDS011;1383;48.362;10.908;2024-03-02T09:09:45;5.07;;;4.60;;
2750;SDS011;1383;48.362;10.908;2024-03-02T09:12:12;4.67;;;4.27;;
2750;SDS011;1383;48.362;10.908;2024-03-02T09:14:40;5.07;;;4.67;;
2750;SDS011;1383;48.362;10.908;2024-03-02T09:17:07;5.23;;;4.73;;
2750;SDS011;1383;48.362;10.908;2024-03-02T09:19:37;3.37;;;3.07;;
2750;SDS011;1383;48.362;10.908;2024-03-02T09:22:04;3.80;;;3.43;;
2750;SDS011;1383;48.362;10.908;2024-03-02T09:24:32;4.43;;;3.50;;
2750;SDS011;1383;48.362;10.908;2024-03-02T09:27:02;3.57;;;3.27;;
2750;SDS011;1383;48.362;10.908;2024-03-02T09:29:29;3.97;;;3.53;;
2750;SDS011;1383;48.362;10.908;2024-03-02T09:31:56;3.83;;;3.43;;
2750;SDS011;1383;48.362;10.908;2024-03-02T09:34:23;3.50;;;3.20;;
2750;SDS011;1383;48.362;10.908;2024-03-02T09:36:50;3.83;;;3.53;;
2750;SDS011;1383;48.362;10.908;2024-03-02T09:39:18;4.03;;;2.97;;
2750;SDS011;1383;48.362;10.908;2024-03-02T09:41:45;2.80;;;2.60;;
2750;SDS011;1383;48.362;10.908;2024-03-02T09:44:14;3.03;;;2.50;;
2750;SDS011;1383;48.362;10.908;2024-03-02T09:46:41;2.83;;;2.53;;
2750;SDS011;1383;48.362;10.908;2024-03-02T09:49:10;4.60;;;3.03;;
2750;SDS011;1383;48.362;10.908;2024-03-02T09:51:37;2.83;;;2.50;;
2750;SDS011;1383;48.362;10.908;2024-03-02T09:54:07;2.90;;;2.60;;
2750;SDS011;1383;48.362;10.908;2024-03-02T09:56:47;3.10;;;2.73;;
2750;SDS011;1383;48.362;10.908;2024-03-02T09:59:14;2.63;;;2.43;;
2750;SDS011;1383;48.362;10.908;2024-03-02T10:02:00;3.53;;;2.97;;
2750;SDS011;1383;48.362;10.908;2024-03-02T10:04:29;3.43;;;2.77;;
2750;SDS011;1383;48.362;10.908;2024-03-02T10:09:38;4.00;;;3.60;;
2750;SDS011;1383;48.362;10.908;2024-03-02T10:12:06;5.87;;;5.23;;
2750;SDS011;1383;48.362;10.908;2024-03-02T10:14:34;5.50;;;5.00;;
2750;SDS011;1383;48.362;10.908;2024-03-02T10:17:11;5.77;;;4.70;;
2750;SDS011;1383;48.362;10.908;2024-03-02T10:19:39;3.17;;;2.53;;
2750;SDS011;1383;48.362;10.908;2024-03-02T10:22:07;3.43;;;3.13;;
2750;SDS011;1383;48.362;10.908;2024-03-02T10:24:42;5.30;;;3.63;;
2750;SDS011;1383;48.362;10.908;2024-03-02T10:27:16;3.80;;;3.40;;
2750;SDS011;1383;48.362;10.908;2024-03-02T10:29:47;3.77;;;3.30;;
2750;SDS011;1383;48.362;10.908;2024-03-02T10:32:14;2.80;;;2.60;;
2750;SDS011;1383;48.362;10.908;2024-03-02T10:34:46;7.97;;;3.63;;
2750;SDS011;1383;48.362;10.908;2024-03-02T10:37:14;4.07;;;3.70;;
2750;SDS011;1383;48.362;10.908;2024-03-02T10:39:43;4.53;;;4.10;;
2750;SDS011;1383;48.362;10.908;2024-03-02T10:42:12;5.33;;;3.60;;
2750;SDS011;1383;48.362;10.908;2024-03-02T10:44:41;3.90;;;3.50;;
2750;SDS011;1383;48.362;10.908;2024-03-02T10:47:09;4.20;;;3.80;;
2750;SDS011;1383;48.362;10.908;2024-03-02T10:49:41;4.60;;;3.60;;
2750;SDS011;1383;48.362;10.908;2024-03-02T10:52:10;6.17;;;4.23;;
2750;SDS011;1383;48.362;10.908;2024-03-02T10:54:43;5.83;;;4.50;;
2750;SDS011;1383;48.362;10.908;2024-03-02T10:57:10;5.90;;;5.10;;
2750;SDS011;1383;48.362;10.908;2024-03-02T10:59:44;3.40;;;3.10;;
2750;SDS011;1383;48.362;10.908;2024-03-02T11:02:18;6.53;;;5.00;;
2750;SDS011;1383;48.362;10.908;2024-03-02T11:04:47;6.23;;;4.60;;
2750;SDS011;1383;48.362;10.908;2024-03-02T11:07:16;5.10;;;4.60;;
2750;SDS011;1383;48.362;10.908;2024-03-02T11:09:59;5.20;;;4.70;;
2750;SDS011;1383;48.362;10.908;2024-03-02T11:12:36;6.40;;;5.20;;
2750;SDS011;1383;48.362;10.908;2024-03-02T11:15:10;5.73;;;4.73;;
2750;SDS011;1383;48.362;10.908;2024-03-02T11:17:40;4.97;;;4.30;;
2750;SDS011;1383;48.362;10.908;2024-03-02T11:20:08;5.40;;;4.90;;
2750;SDS011;1383;48.362;10.908;2024-03-02T11:22:35;6.90;;;6.30;;
2750;SDS011;1383;48.362;10.908;2024-03-02T11:25:22;9.43;;;7.23;;
2750;SDS011;1383;48.362;10.908;2024-03-02T11:33:04;6.80;;;6.10;;
2750;SDS011;1383;48.362;10.908;2024-03-02T11:35:41;5.80;;;5.17;;
2750;SDS011;1383;48.362;10.908;2024-03-02T11:38:13;6.63;;;5.93;;
2750;SDS011;1383;48.362;10.908;2024-03-02T11:40:40;8.20;;;5.70;;
2750;SDS011;1383;48.362;10.908;2024-03-02T11:43:08;7.00;;;6.30;;
2750;SDS011;1383;48.362;10.908;2024-03-02T11:45:37;9.20;;;7.87;;
2750;SDS011;1383;48.362;10.908;2024-03-02T11:48:14;10.80;;;7.87;;
2750;SDS011;1383;48.362;10.908;2024-03-02T11:50:46;9.90;;;7.20;;
2750;SDS011;1383;48.362;10.908;2024-03-02T11:53:15;10.97;;;7.80;;
2750;SDS011;1383;48.362;10.908;2024-03-02T11:55:43;9.40;;;7.03;;
2750;SDS011;1383;48.362;10.908;2024-03-02T11:58:13;9.10;;;8.17;;
2750;SDS011;1383;48.362;10.908;2024-03-02T12:00:43;8.00;;;7.20;;
2750;SDS011;1383;48.362;10.908;2024-03-02T12:03:12;7.67;;;6.87;;
2750;SDS011;1383;48.362;10.908;2024-03-02T12:05:40;10.00;;;8.50;;
2750;SDS011;1383;48.362;10.908;2024-03-02T12:08:10;10.53;;;9.43;;
2750;SDS011;1383;48.362;10.908;2024-03-02T12:10:39;9.20;;;8.30;;
2750;SDS011;1383;48.362;10.908;2024-03-02T12:13:06;12.93;;;9.30;;
2750;SDS011;1383;48.362;10.908;2024-03-02T12:15:36;9.77;;;8.77;;
2750;SDS011;1383;48.362;10.908;2024-03-02T12:18:04;10.33;;;9.13;;
2750;SDS011;1383;48.362;10.908;2024-03-02T12:20:33;10.27;;;9.27;;
2750;SDS011;1383;48.362;10.908;2024-03-02T12:23:01;9.60;;;8.30;;
2750;SDS011;1383;48.362;10.908;2024-03-02T12:25:29;10.20;;;9.10;;
2750;SDS011;1383;48.362;10.908;2024-03-02T12:27:59;11.33;;;9.43;;
2750;SDS011;1383;48.362;10.908;2024-03-02T12:30:29;12.93;;;10.27;;
2750;SDS011;1383;48.362;10.908;2024-03-02T12:32:57;13.47;;;10.40;;
2750;SDS011;1383;48.362;10.908;2024-03-02T12:35:27;13.10;;;11.40;;
2750;SDS011;1383;48.362;10.908;2024-03-02T12:38:17;14.40;;;12.90;;
2750;SDS011;1383;48.362;10.908;2024-03-02T12:41:09;15.33;;;11.83;;
2750;SDS011;1383;48.362;10.908;2024-03-02T12:47:00;16.00;;;12.07;;
2750;SDS011;1383;48.362;10.908;2024-03-02T12:49:28;14.40;;;12.03;;
2750;SDS011;1383;48.362;10.908;2024-03-02T12:51:57;18.23;;;14.17;;
2750;SDS011;1383;48.362;10.908;2024-03-02T12:54:27;15.60;;;11.37;;
2750;SDS011;1383;48.362;10.908;2024-03-02T12:57:02;14.93;;;11.60;;
2750;SDS011;1383;48.362;10.908;2024-03-02T12:59:31;16.63;;;11.47;;
2750;SDS011;1383;48.362;10.908;2024-03-02T13:01:59;17.40;;;10.27;;
2750;SDS011;1383;48.362;10.908;2024-03-02T13:04:28;13.50;;;12.03;;
2750;SDS011;1383;48.362;10.908;2024-03-02T13:06:57;17.60;;;11.40;;
2750;SDS011;1383;48.362;10.908;2024-03-02T13:09:34;16.40;;;12.30;;
2750;SDS011;1383;48.362;10.908;2024-03-02T13:12:04;16.83;;;12.33;;
2750;SDS011;1383;48.362;10.908;2024-03-02T13:14:35;11.53;;;9.70;;
2750;SDS011;1383;48.362;10.908;2024-03-02T13:17:02;17.10;;;10.63;;
2750;SDS011;1383;48.362;10.908;2024-03-02T13:19:31;15.87;;;12.67;;
2750;SDS011;1383;48.362;10.908;2024-03-02T13:21:59;12.57;;;10.60;;
2750;SDS011;1383;48.362;10.908;2024-03-02T13:24:29;15.00;;;10.93;;
2750;SDS011;1383;48.362;10.908;2024-03-02T13:27:06;15.37;;;12.17;;
2750;SDS011;1383;48.362;10.908;2024-03-02T13:29:37;15.80;;;11.20;;
2750;SDS011;1383;48.362;10.908;2024-03-02T13:32:04;13.30;;;10.70;;
2750;SDS011;1383;48.362;10.908;2024-03-02T13:37:12;14.27;;;12.27;;
2750;SDS011;1383;48.362;10.908;2024-03-02T13:39:40;14.33;;;11.07;;
2750;SDS011;1383;48.362;10.908;2024-03-02T13:42:09;14.50;;;12.00;;
2750;SDS011;1383;48.362;10.908;2024-03-02T13:44:36;15.83;;;11.20;;
2750;SDS011;1383;48.362;10.908;2024-03-02T13:47:04;20.47;;;11.60;;
2750;SDS011;1383;48.362;10.908;2024-03-02T13:49:31;14.73;;;12.33;;
2750;SDS011;1383;48.362;10.908;2024-03-02T13:52:04;16.43;;;13.40;;
2750;SDS011;1383;48.362;10.908;2024-03-02T13:54:39;20.07;;;15.03;;
2750;SDS011;1383;48.362;10.908;2024-03-02T13:57:08;20.27;;;15.10;;
2750;SDS011;1383;48.362;10.908;2024-03-02T13:59:35;18.10;;;14.60;;
2750;SDS011;1383;48.362;10.908;2024-03-02T14:02:06;20.50;;;16.23;;
2750;SDS011;1383;48.362;10.908;2024-03-02T14:04:35;17.90;;;15.77;;
2750;SDS011;1383;48.362;10.908;2024-03-02T14:07:04;18.67;;;14.40;;
2750;SDS011;1383;48.362;10.908;2024-03-02T14:09:34;24.00;;;19.17;;
2750;SDS011;1383;48.362;10.908;2024-03-02T14:12:03;19.27;;;15.07;;
2750;SDS011;1383;48.362;10.908;2024-03-02T14:14:31;19.80;;;15.67;;
2750;SDS011;1383;48.362;10.908;2024-03-02T14:16:59;19.80;;;13.57;;
2750;SDS011;1383;48.362;10.908;2024-03-02T14:19:30;16.90;;;12.23;;
2750;SDS011;1383;48.362;10.908;2024-03-02T14:21:58;16.43;;;13.47;;
2750;SDS011;1383;48.362;10.908;2024-03-02T14:24:25;15.30;;;13.20;;
2750;SDS011;1383;48.362;10.908;2024-03-02T14:26:54;16.20;;;13.23;;
2750;SDS011;1383;48.362;10.908;2024-03-02T14:29:48;20.03;;;13.83;;
2750;SDS011;1383;48.362;10.908;2024-03-02T14:32:15;17.30;;;12.47;;
2750;SDS011;1383;48.362;10.908;2024-03-02T14:34:42;19.93;;;12.57;;
2750;SDS011;1383;48.362;10.908;2024-03-02T14:37:09;11.30;;;9.50;;
2750;SDS011;1383;48.362;10.908;2024-03-02T14:39:36;15.30;;;10.30;;
2750;SDS011;1383;48.362;10.908;2024-03-02T14:42:03;11.63;;;9.33;;
2750;SDS011;1383;48.362;10.908;2024-03-02T14:44:30;13.70;;;9.20;;
2750;SDS011;1383;48.362;10.908;2024-03-02T14:46:57;13.17;;;8.83;;
2750;SDS011;1383;48.362;10.908;2024-03-02T14:49:25;14.90;;;10.23;;
2750;SDS011;1383;48.362;10.908;2024-03-02T14:51:54;10.90;;;9.27;;
2750;SDS011;1383;48.362;10.908;2024-03-02T14:54:22;11.83;;;9.27;;
2750;SDS011;1383;48.362;10.908;2024-03-02T14:56:50;9.63;;;8.60;;
2750;SDS011;1383;48.362;10.908;2024-03-02T14:59:18;10.70;;;9.27;;
2750;SDS011;1383;48.362;10.908;2024-03-02T15:01:46;13.70;;;9.27;;
2750;SDS011;1383;48.362;10.908;2024-03-02T15:04:17;11.10;;;8.53;;
2750;SDS011;1383;48.362;10.908;2024-03-02T15:06:47;10.20;;;8.27;;